createdAt,value
2023-01-18T00:01:07.484Z,1.31
2023-01-18T00:03:38.283Z,1.31
2023-01-18T00:06:10.663Z,1.32
2023-01-18T00:08:42.803Z,1.33
2023-01-18T00:11:16.214Z,1.33
2023-01-18T00:13:45.257Z,1.30
2023-01-18T00:16:17.353Z,1.31
2023-01-18T00:18:52.031Z,1.26
2023-01-18T00:21:21.857Z,1.26
2023-01-18T00:23:52.366Z,1.25
2023-01-18T00:26:22.773Z,1.23
2023-01-18T00:28:52.425Z,1.22
2023-01-18T00:31:23.083Z,1.20
2023-01-18T00:33:53.586Z,1.20
2023-01-18T00:36:23.581Z,1.15
2023-01-18T00:38:52.732Z,1.17
2023-01-18T00:41:23.454Z,1.17
2023-01-18T00:43:53.482Z,1.16
2023-01-18T00:46:25.319Z,1.12
2023-01-18T00:48:57.410Z,1.09
2023-01-18T00:51:27.454Z,1.08
2023-01-18T00:53:55.792Z,1.07
2023-01-18T00:56:26.184Z,1.05
2023-01-18T00:58:56.052Z,1.01
2023-01-18T01:01:26.521Z,1.02
2023-01-18T01:04:24.998Z,1.00
2023-01-18T01:06:55.047Z,0.95
2023-01-18T01:09:28.909Z,0.94
2023-01-18T01:12:18.641Z,0.96
2023-01-18T01:15:07.293Z,0.94
2023-01-18T01:17:55.626Z,0.95
2023-01-18T01:20:44.875Z,0.96
2023-01-18T01:23:35.645Z,0.91
2023-01-18T01:26:09.453Z,0.84
2023-01-18T01:28:43.253Z,0.77
2023-01-18T01:31:17.113Z,0.79
2023-01-18T01:33:47.392Z,0.81
2023-01-18T01:36:20.852Z,0.81
2023-01-18T01:38:49.284Z,0.85
2023-01-18T01:41:26.060Z,0.84
2023-01-18T01:44:00.114Z,0.82
2023-01-18T01:46:43.552Z,0.85
2023-01-18T01:49:17.503Z,0.86
2023-01-18T01:51:52.779Z,0.85
2023-01-18T01:54:28.730Z,0.84
2023-01-18T01:57:06.091Z,0.86
2023-01-18T01:59:42.419Z,0.87
2023-01-18T02:02:14.832Z,0.86
2023-01-18T02:04:46.599Z,0.83
2023-01-18T02:07:16.063Z,0.85
2023-01-18T02:09:45.226Z,0.81
2023-01-18T02:12:16.067Z,0.78
2023-01-18T02:14:47.617Z,0.77
2023-01-18T02:17:54.036Z,0.77
2023-01-18T02:21:04.346Z,0.76
2023-01-18T02:23:47.838Z,0.75
2023-01-18T02:26:57.121Z,0.76
2023-01-18T02:29:46.353Z,0.75
2023-01-18T02:32:31.046Z,0.76
2023-01-18T02:35:10.410Z,0.77
2023-01-18T02:37:51.236Z,0.77
2023-01-18T02:40:31.761Z,0.79
2023-01-18T02:43:24.313Z,0.76
2023-01-18T02:46:13.082Z,0.73
2023-01-18T02:48:46.157Z,0.70
2023-01-18T02:51:15.469Z,0.72
2023-01-18T02:53:49.033Z,0.74
2023-01-18T02:56:28.208Z,0.75
2023-01-18T02:59:06.192Z,0.74
2023-01-18T03:01:45.672Z,0.71
2023-01-18T03:04:23.518Z,0.74
2023-01-18T03:07:00.561Z,0.73
2023-01-18T03:09:31.052Z,0.75
2023-01-18T03:12:13.083Z,0.74
2023-01-18T03:14:53.868Z,0.73
2023-01-18T03:17:36.794Z,0.72
2023-01-18T03:20:13.036Z,0.73
2023-01-18T03:23:08.345Z,0.65
2023-01-18T03:25:42.227Z,0.64
2023-01-18T03:28:34.738Z,0.68
2023-01-18T03:31:30.277Z,0.69
2023-01-18T03:34:10.401Z,0.70
2023-01-18T03:36:44.907Z,0.70
2023-01-18T03:39:21.838Z,0.70
2023-01-18T03:41:57.924Z,0.70
2023-01-18T03:44:36.797Z,0.70
2023-01-18T03:47:08.502Z,0.69
2023-01-18T03:49:39.957Z,0.67
2023-01-18T03:52:20.676Z,0.68
2023-01-18T03:55:02.863Z,0.69
2023-01-18T03:57:38.047Z,0.63
2023-01-18T04:00:10.401Z,0.59
2023-01-18T04:02:39.942Z,0.59
2023-01-18T04:05:14.023Z,0.57
2023-01-18T04:07:43.921Z,0.57
2023-01-18T04:10:13.795Z,0.59
2023-01-18T04:12:43.039Z,0.57
2023-01-18T04:15:15.130Z,0.56
2023-01-18T04:17:45.622Z,0.57
2023-01-18T04:20:17.399Z,0.60
2023-01-18T04:22:53.361Z,0.57
2023-01-18T04:25:23.079Z,0.60
2023-01-18T04:27:53.092Z,0.59
2023-01-18T04:30:22.948Z,0.56
2023-01-18T04:32:52.575Z,0.54
2023-01-18T04:35:23.237Z,0.54
2023-01-18T04:37:56.093Z,0.55
2023-01-18T04:40:26.087Z,0.49
2023-01-18T04:42:56.799Z,0.49
2023-01-18T04:45:26.590Z,0.50
2023-01-18T04:47:56.062Z,0.46
2023-01-18T04:50:26.642Z,0.48
2023-01-18T04:52:56.701Z,0.43
2023-01-18T04:55:26.300Z,0.42
2023-01-18T04:57:58.341Z,0.40
2023-01-18T05:00:29.775Z,0.39
2023-01-18T05:02:58.914Z,0.38
2023-01-18T05:05:30.091Z,0.35
2023-01-18T05:07:59.977Z,0.33
2023-01-18T05:10:29.341Z,0.30
2023-01-18T05:12:59.752Z,0.32
2023-01-18T05:15:29.336Z,0.30
2023-01-18T05:17:59.188Z,0.31
2023-01-18T05:20:29.803Z,0.28
2023-01-18T05:22:59.589Z,0.27
2023-01-18T05:25:30.191Z,0.27
2023-01-18T05:28:00.282Z,0.29
2023-01-18T05:30:29.254Z,0.27
2023-01-18T05:32:59.609Z,0.25
2023-01-18T05:35:29.666Z,0.25
2023-01-18T05:38:00.727Z,0.21
2023-01-18T05:40:30.767Z,0.20
2023-01-18T05:43:01.043Z,0.21
2023-01-18T05:45:31.079Z,0.20
2023-01-18T05:48:01.602Z,0.22
2023-01-18T05:50:31.958Z,0.17
2023-01-18T05:53:02.192Z,0.17
2023-01-18T05:55:31.682Z,0.15
2023-01-18T05:58:01.660Z,0.12
2023-01-18T06:00:31.391Z,0.07
2023-01-18T06:03:02.648Z,0.06
2023-01-18T06:05:34.073Z,0.07
2023-01-18T06:08:03.497Z,0.07
2023-01-18T06:10:33.387Z,0.06
2023-01-18T06:13:02.785Z,0.04
2023-01-18T06:15:33.306Z,0.02
2023-01-18T06:18:03.314Z,0.04
2023-01-18T06:20:34.529Z,0.04
2023-01-18T06:23:04.539Z,0.04
2023-01-18T06:25:34.587Z,0.03
2023-01-18T06:28:05.794Z,0.04
2023-01-18T06:30:35.512Z,0.01
2023-01-18T06:33:07.412Z,0.00
2023-01-18T06:35:38.457Z,-0.01
2023-01-18T06:38:07.532Z,0.00
2023-01-18T06:40:36.954Z,-0.04
2023-01-18T06:43:08.131Z,-0.07
2023-01-18T06:45:37.565Z,-0.07
2023-01-18T06:48:08.291Z,-0.05
2023-01-18T06:50:39.570Z,-0.05
2023-01-18T06:53:09.489Z,-0.08
2023-01-18T06:55:40.116Z,-0.07
2023-01-18T06:58:09.892Z,-0.06
2023-01-18T07:00:38.882Z,-0.04
2023-01-18T07:03:11.258Z,-0.05
2023-01-18T07:05:42.559Z,-0.08
2023-01-18T07:08:13.013Z,-0.11
2023-01-18T07:10:43.044Z,-0.10
2023-01-18T07:13:12.427Z,-0.11
2023-01-18T07:15:42.268Z,-0.11
2023-01-18T07:18:12.234Z,-0.13
2023-01-18T07:20:43.097Z,-0.13
2023-01-18T07:23:12.953Z,-0.15
2023-01-18T07:25:42.202Z,-0.17
2023-01-18T07:28:13.135Z,-0.16
2023-01-18T07:30:42.407Z,-0.21
2023-01-18T07:33:13.054Z,-0.24
2023-01-18T07:35:43.452Z,-0.25
2023-01-18T07:38:13.302Z,-0.27
2023-01-18T07:40:42.897Z,-0.30
2023-01-18T07:43:14.040Z,-0.28
2023-01-18T07:45:43.964Z,-0.28
2023-01-18T07:48:14.501Z,-0.29
2023-01-18T07:50:45.853Z,-0.30
2023-01-18T07:53:16.791Z,-0.29
2023-01-18T07:55:46.342Z,-0.30
2023-01-18T07:58:16.235Z,-0.31
2023-01-18T08:00:46.924Z,-0.27
2023-01-18T08:03:18.853Z,-0.31
2023-01-18T08:05:50.200Z,-0.33
2023-01-18T08:08:20.687Z,-0.28
2023-01-18T08:10:50.212Z,-0.23
2023-01-18T08:13:20.881Z,-0.25
2023-01-18T08:15:50.969Z,-0.26
2023-01-18T08:18:19.949Z,-0.24
2023-01-18T08:20:54.966Z,-0.18
2023-01-18T08:23:26.048Z,-0.17
2023-01-18T08:25:55.989Z,-0.15
2023-01-18T08:28:25.824Z,-0.19
2023-01-18T08:31:05.443Z,-0.14
2023-01-18T08:33:40.636Z,-0.12
2023-01-18T08:36:18.622Z,-0.09
2023-01-18T08:38:51.121Z,-0.06
2023-01-18T08:41:21.671Z,-0.02
2023-01-18T08:43:52.480Z,0.03
2023-01-18T08:46:22.092Z,0.07
2023-01-18T08:48:52.676Z,0.07
2023-01-18T08:51:24.396Z,0.10
2023-01-18T08:53:55.128Z,0.13
2023-01-18T08:56:25.357Z,0.17
2023-01-18T08:58:55.059Z,0.20
2023-01-18T09:01:24.840Z,0.24
2023-01-18T09:03:58.219Z,0.27
2023-01-18T09:06:32.557Z,0.29
2023-01-18T09:09:02.472Z,0.36
2023-01-18T09:11:31.241Z,0.41
2023-01-18T09:14:02.412Z,0.47
2023-01-18T09:16:33.187Z,0.50
2023-01-18T09:19:06.336Z,0.57
2023-01-18T09:21:37.856Z,0.63
2023-01-18T09:24:09.389Z,0.65
2023-01-18T09:26:38.751Z,0.69
2023-01-18T09:29:07.967Z,0.72
2023-01-18T09:31:38.573Z,0.77
2023-01-18T09:34:18.882Z,0.80
2023-01-18T09:36:52.460Z,0.85
2023-01-18T09:39:23.643Z,0.87
2023-01-18T09:41:56.372Z,0.91
2023-01-18T09:44:31.614Z,0.96
2023-01-18T09:47:07.906Z,1.00
2023-01-18T09:49:45.037Z,1.02
2023-01-18T09:52:34.211Z,1.06
2023-01-18T09:55:17.528Z,1.10
2023-01-18T09:58:06.427Z,1.13
2023-01-18T10:00:42.012Z,1.16
2023-01-18T10:03:20.855Z,1.18
2023-01-18T10:06:10.016Z,1.23
2023-01-18T10:08:53.322Z,1.20
2023-01-18T10:11:33.224Z,1.24
2023-01-18T10:14:09.460Z,1.29
2023-01-18T10:16:39.301Z,1.30
2023-01-18T10:19:21.517Z,1.31
2023-01-18T10:22:03.559Z,1.35
2023-01-18T10:24:59.852Z,1.38
2023-01-18T10:28:09.462Z,1.40
2023-01-18T10:31:04.447Z,1.46
2023-01-18T10:33:41.825Z,1.46
2023-01-18T10:36:20.223Z,1.46
2023-01-18T10:38:52.706Z,1.48
2023-01-18T10:41:30.244Z,1.50
2023-01-18T10:43:59.303Z,1.52
2023-01-18T10:46:29.682Z,1.57
2023-01-18T10:48:59.319Z,1.60
2023-01-18T10:51:37.050Z,1.63
2023-01-18T10:54:24.521Z,1.65
2023-01-18T10:57:09.943Z,1.68
2023-01-18T10:59:41.673Z,1.72
2023-01-18T11:02:27.454Z,1.74
2023-01-18T11:05:02.953Z,1.77
2023-01-18T11:07:32.761Z,1.79
2023-01-18T11:10:10.085Z,1.78
2023-01-18T11:12:52.198Z,1.76
2023-01-18T11:15:30.603Z,1.80
2023-01-18T11:18:12.645Z,1.79
2023-01-18T11:20:50.602Z,1.83
2023-01-18T11:23:25.985Z,1.85
2023-01-18T11:26:03.336Z,1.88
2023-01-18T11:28:40.492Z,1.87
2023-01-18T11:31:14.762Z,1.89
2023-01-18T11:34:24.551Z,1.90
2023-01-18T11:36:55.348Z,1.94
2023-01-18T11:39:32.608Z,1.94
2023-01-18T11:42:30.274Z,1.94
2023-01-18T11:45:22.674Z,1.93
2023-01-18T11:48:02.893Z,1.96
2023-01-18T11:50:42.336Z,1.98
2023-01-18T11:53:30.887Z,2.02
2023-01-18T11:56:07.002Z,2.03
2023-01-18T11:58:38.305Z,2.00
2023-01-18T12:01:37.307Z,2.01
2023-01-18T12:04:15.797Z,2.06
2023-01-18T12:06:57.858Z,2.12
2023-01-18T12:09:41.016Z,2.08
2023-01-18T12:12:34.077Z,2.09
2023-01-18T12:15:27.447Z,2.13
2023-01-18T12:18:24.673Z,2.14
2023-01-18T12:21:04.274Z,2.11
2023-01-18T12:24:20.506Z,2.16
2023-01-18T12:26:58.335Z,2.17
2023-01-18T12:30:07.975Z,2.15
2023-01-18T12:33:05.704Z,2.16
2023-01-18T12:35:56.281Z,2.17
2023-01-18T12:38:30.890Z,2.22
2023-01-18T12:41:43.946Z,2.27
2023-01-18T12:45:02.265Z,2.32
2023-01-18T12:47:39.520Z,2.37
2023-01-18T12:50:25.203Z,2.42
2023-01-18T12:53:03.232Z,2.44
2023-01-18T12:55:37.349Z,2.42
2023-01-18T12:58:08.274Z,2.42
2023-01-18T13:00:41.168Z,2.42
2023-01-18T13:03:18.155Z,2.46
2023-01-18T13:05:55.257Z,2.46
2023-01-18T13:08:39.290Z,2.48
2023-01-18T13:11:18.358Z,2.51
2023-01-18T13:13:52.273Z,2.51
2023-01-18T13:16:39.501Z,2.51
2023-01-18T13:19:13.706Z,2.56
2023-01-18T13:22:05.127Z,2.59
2023-01-18T13:25:10.830Z,2.65
2023-01-18T13:27:41.642Z,2.66
2023-01-18T13:30:21.412Z,2.69
2023-01-18T13:32:51.719Z,2.67
2023-01-18T13:35:31.684Z,2.70
2023-01-18T13:38:03.239Z,2.67
2023-01-18T13:40:43.906Z,2.67
2023-01-18T13:44:05.136Z,2.67
2023-01-18T13:46:39.360Z,2.67
2023-01-18T13:49:38.218Z,2.65
2023-01-18T13:52:32.293Z,2.58
2023-01-18T13:55:25.244Z,2.59
2023-01-18T13:57:58.780Z,2.58
2023-01-18T14:00:30.752Z,2.59
2023-01-18T14:03:17.246Z,2.62
2023-01-18T14:05:49.620Z,2.59
2023-01-18T14:08:24.985Z,2.55
2023-01-18T14:11:06.711Z,2.53
2023-01-18T14:14:08.960Z,2.57
2023-01-18T14:16:56.111Z,2.59
2023-01-18T14:19:28.150Z,2.60
2023-01-18T14:22:19.016Z,2.59
2023-01-18T14:25:11.305Z,2.60
2023-01-18T14:27:49.855Z,2.58
2023-01-18T14:30:28.622Z,2.53
2023-01-18T14:33:05.548Z,2.51
2023-01-18T14:35:35.386Z,2.49
2023-01-18T14:38:18.575Z,2.49
2023-01-18T14:40:53.298Z,2.46
2023-01-18T14:43:32.700Z,2.46
2023-01-18T14:46:06.894Z,2.45
2023-01-18T14:48:44.815Z,2.44
2023-01-18T14:51:20.483Z,2.41
2023-01-18T14:53:55.207Z,2.44
2023-01-18T14:56:27.659Z,2.43
2023-01-18T14:58:59.434Z,2.47
2023-01-18T15:01:33.970Z,2.43
2023-01-18T15:04:06.753Z,2.43
2023-01-18T15:06:45.166Z,2.42
2023-01-18T15:09:15.070Z,2.41
2023-01-18T15:11:46.047Z,2.33
2023-01-18T15:14:21.721Z,2.29
2023-01-18T15:16:56.447Z,2.26
2023-01-18T15:19:35.091Z,2.26
2023-01-18T15:22:07.644Z,2.20
2023-01-18T15:24:42.833Z,2.21
2023-01-18T15:27:15.634Z,2.14
2023-01-18T15:29:53.650Z,2.07
2023-01-18T15:32:26.292Z,2.02
2023-01-18T15:34:58.896Z,1.96
2023-01-18T15:37:32.915Z,1.90
2023-01-18T15:40:06.496Z,1.94
2023-01-18T15:42:43.845Z,1.85
2023-01-18T15:45:21.972Z,1.81
2023-01-18T15:47:56.485Z,1.75
2023-01-18T15:50:31.017Z,1.71
2023-01-18T15:53:10.498Z,1.73
2023-01-18T15:55:48.062Z,1.69
2023-01-18T15:58:30.429Z,1.62
2023-01-18T16:01:03.482Z,1.62
2023-01-18T16:03:40.364Z,1.51
2023-01-18T16:06:15.700Z,1.45
2023-01-18T16:09:00.884Z,1.37
2023-01-18T16:11:36.114Z,1.28
2023-01-18T16:14:13.741Z,1.26
2023-01-18T16:16:44.395Z,1.23
2023-01-18T16:19:28.454Z,1.22
2023-01-18T16:22:02.125Z,1.22
2023-01-18T16:24:39.246Z,1.17
2023-01-18T16:27:14.903Z,1.06
2023-01-18T16:29:50.753Z,1.06
2023-01-18T16:32:32.574Z,1.01
2023-01-18T16:35:14.441Z,1.04
2023-01-18T16:37:45.711Z,0.99
2023-01-18T16:40:17.967Z,0.95
2023-01-18T16:43:02.903Z,0.95
2023-01-18T16:45:36.311Z,0.89
2023-01-18T16:48:07.183Z,0.91
2023-01-18T16:50:39.131Z,0.85
2023-01-18T16:53:09.224Z,0.85
2023-01-18T16:55:40.314Z,0.87
2023-01-18T16:58:11.463Z,0.89
2023-01-18T17:01:00.837Z,0.81
2023-01-18T17:03:30.661Z,0.75
2023-01-18T17:06:01.811Z,0.67
2023-01-18T17:08:31.544Z,0.65
2023-01-18T17:11:01.813Z,0.69
2023-01-18T17:13:31.271Z,0.69
2023-01-18T17:16:01.006Z,0.66
2023-01-18T17:18:29.401Z,0.60
2023-01-18T17:21:00.901Z,0.64
2023-01-18T17:23:29.578Z,0.62
2023-01-18T17:25:59.059Z,0.48
2023-01-18T17:28:29.249Z,0.46
2023-01-18T17:30:58.262Z,0.48
2023-01-18T17:33:28.349Z,0.52
2023-01-18T17:35:59.044Z,0.52
2023-01-18T17:40:59.699Z,0.52
2023-01-18T17:43:33.962Z,0.44
2023-01-18T17:46:05.814Z,0.37
2023-01-18T17:48:36.469Z,0.40
2023-01-18T17:51:08.008Z,0.38
2023-01-18T17:53:39.085Z,0.37
2023-01-18T17:56:10.577Z,0.38
2023-01-18T17:58:39.510Z,0.34
2023-01-18T18:01:12.048Z,0.34
2023-01-18T18:03:43.748Z,0.33
2023-01-18T18:06:18.992Z,0.27
2023-01-18T18:08:56.853Z,0.24
2023-01-18T18:11:27.673Z,0.29
2023-01-18T18:13:56.891Z,0.29
2023-01-18T18:16:26.515Z,0.23
2023-01-18T18:18:57.623Z,0.18
2023-01-18T18:21:27.804Z,0.13
2023-01-18T18:23:58.712Z,0.09
2023-01-18T18:26:28.641Z,0.12
2023-01-18T18:28:59.172Z,0.05
2023-01-18T18:31:30.059Z,0.05
2023-01-18T18:33:59.624Z,0.10
2023-01-18T18:36:29.546Z,0.14
2023-01-18T18:39:03.537Z,0.13
2023-01-18T18:41:33.186Z,0.07
2023-01-18T18:44:02.289Z,-0.02
2023-01-18T18:46:31.325Z,0.00
2023-01-18T18:49:02.532Z,-0.01
2023-01-18T18:51:32.005Z,0.02
2023-01-18T18:54:03.240Z,0.00
2023-01-18T18:56:33.745Z,-0.01
2023-01-18T18:59:04.782Z,-0.06
2023-01-18T19:01:34.704Z,-0.11
2023-01-18T19:04:06.620Z,-0.09
2023-01-18T19:06:39.097Z,-0.08
2023-01-18T19:09:10.282Z,-0.17
2023-01-18T19:11:50.416Z,-0.19
2023-01-18T19:14:26.832Z,-0.18
2023-01-18T19:16:56.839Z,-0.18
2023-01-18T19:19:28.486Z,-0.26
2023-01-18T19:21:59.278Z,-0.26
2023-01-18T19:24:34.941Z,-0.27
2023-01-18T19:27:05.132Z,-0.27
2023-01-18T19:29:34.215Z,-0.33
2023-01-18T19:32:05.048Z,-0.33
2023-01-18T19:34:35.252Z,-0.33
2023-01-18T19:37:05.289Z,-0.34
2023-01-18T19:39:36.715Z,-0.35
2023-01-18T19:42:08.020Z,-0.41
2023-01-18T19:44:37.190Z,-0.42
2023-01-18T19:47:06.413Z,-0.40
2023-01-18T19:49:38.131Z,-0.42
2023-01-18T19:52:07.687Z,-0.45
2023-01-18T19:54:39.356Z,-0.47
2023-01-18T19:57:09.421Z,-0.47
2023-01-18T19:59:39.481Z,-0.51
2023-01-18T20:02:12.213Z,-0.55
2023-01-18T20:04:42.861Z,-0.56
2023-01-18T20:07:12.978Z,-0.62
2023-01-18T20:09:44.161Z,-0.60
2023-01-18T20:12:14.593Z,-0.67
2023-01-18T20:14:45.975Z,-0.75
2023-01-18T20:17:16.171Z,-0.75
2023-01-18T20:19:46.189Z,-0.74
2023-01-18T20:22:15.501Z,-0.70
2023-01-18T20:24:46.972Z,-0.74
2023-01-18T20:27:17.182Z,-0.73
2023-01-18T20:29:46.478Z,-0.76
2023-01-18T20:32:17.754Z,-0.79
2023-01-18T20:34:47.597Z,-0.78
2023-01-18T20:37:17.604Z,-0.79
2023-01-18T20:39:50.757Z,-0.78
2023-01-18T20:42:21.864Z,-0.78
2023-01-18T20:44:54.334Z,-0.82
2023-01-18T20:47:23.902Z,-0.82
2023-01-18T20:49:52.563Z,-0.81
2023-01-18T20:52:22.597Z,-0.78
2023-01-18T20:54:52.391Z,-0.77
2023-01-18T20:57:23.593Z,-0.78
2023-01-18T20:59:53.976Z,-0.78
2023-01-18T21:02:24.113Z,-0.77
2023-01-18T21:04:53.511Z,-0.76
2023-01-18T21:07:22.105Z,-0.76
2023-01-18T21:09:55.592Z,-0.73
2023-01-18T21:12:26.121Z,-0.76
2023-01-18T21:14:57.439Z,-0.76
2023-01-18T21:17:27.775Z,-0.78
2023-01-18T21:19:57.276Z,-0.89
2023-01-18T21:22:27.157Z,-0.83
2023-01-18T21:24:58.807Z,-0.89
2023-01-18T21:27:28.916Z,-0.88
2023-01-18T21:29:59.867Z,-0.92
2023-01-18T21:32:29.862Z,-1.01
2023-01-18T21:34:59.624Z,-1.01
2023-01-18T21:37:29.921Z,-1.00
2023-01-18T21:40:00.843Z,-0.99
2023-01-18T21:42:47.834Z,-0.97
2023-01-18T21:45:35.218Z,-1.02
2023-01-18T21:48:09.404Z,-1.01
2023-01-18T21:50:59.276Z,-1.02
2023-01-18T21:53:45.028Z,-1.02
2023-01-18T21:56:16.655Z,-1.08
2023-01-18T21:58:54.864Z,-1.08
2023-01-18T22:01:28.813Z,-1.06
2023-01-18T22:04:15.320Z,-1.06
2023-01-18T22:06:45.792Z,-1.14
2023-01-18T22:09:16.422Z,-1.23
2023-01-18T22:11:48.174Z,-1.17
2023-01-18T22:14:18.306Z,-1.21
2023-01-18T22:16:47.334Z,-1.23
2023-01-18T22:19:17.846Z,-1.23
2023-01-18T22:21:47.989Z,-1.26
2023-01-18T22:24:20.255Z,-1.25
2023-01-18T22:26:51.268Z,-1.26
2023-01-18T22:29:21.369Z,-1.30
2023-01-18T22:31:53.593Z,-1.27
2023-01-18T22:34:22.871Z,-1.26
2023-01-18T22:36:52.323Z,-1.31
2023-01-18T22:39:22.052Z,-1.29
2023-01-18T22:41:52.455Z,-1.28
2023-01-18T22:44:23.135Z,-1.30
2023-01-18T22:46:53.659Z,-1.31
2023-01-18T22:49:23.992Z,-1.29
2023-01-18T22:51:52.917Z,-1.27
2023-01-18T22:54:23.634Z,-1.26
2023-01-18T22:56:54.353Z,-1.30
2023-01-18T22:59:24.767Z,-1.36
2023-01-18T23:01:54.900Z,-1.32
2023-01-18T23:04:24.308Z,-1.33
2023-01-18T23:06:54.748Z,-1.36
2023-01-18T23:09:25.905Z,-1.36
2023-01-18T23:11:56.397Z,-1.40
2023-01-18T23:14:43.028Z,-1.43
2023-01-18T23:17:30.914Z,-1.39
2023-01-18T23:20:01.335Z,-1.37
2023-01-18T23:22:31.845Z,-1.40
2023-01-18T23:25:01.835Z,-1.40
2023-01-18T23:27:33.261Z,-1.42
2023-01-18T23:30:02.706Z,-1.42
2023-01-18T23:32:32.040Z,-1.48
2023-01-18T23:35:02.234Z,-1.47
2023-01-18T23:37:32.645Z,-1.48
2023-01-18T23:40:19.902Z,-1.47
2023-01-18T23:43:07.393Z,-1.50
2023-01-18T23:45:54.142Z,-1.51
2023-01-18T23:48:40.767Z,-1.54
2023-01-18T23:51:28.054Z,-1.53
2023-01-18T23:54:15.999Z,-1.52
2023-01-18T23:56:46.960Z,-1.62
2023-01-18T23:59:17.339Z,-1.58
